Time;durP1;ratioP1;P1;durP2;ratioP2;P2;SDS_P1;SDS_P2;PMS_P1;PMS_P2;Temp;Humidity;BMP_temperature;BMP_pressure;BME280_temperature;BME280_humidity;BME280_pressure;Samples;Min_cycle;Max_cycle;Signal;HPM_P1;HPM_P2
2021/06/16 00:01:34;;;;;;;4.15;1.65;;;18.90;51.30;;;;;;5040503;28;20040;-83
2021/06/16 00:04:00;;;;;;;4.13;1.67;;;19.10;51.20;;;;;;5038621;28;20035;-84
2021/06/16 00:06:26;;;;;;;9.32;2.45;;;18.90;51.50;;;;;;5052792;28;20396;-84
2021/06/16 00:08:52;;;;;;;2.78;1.35;;;19.00;51.40;;;;;;5022673;28;20087;-84
2021/06/16 00:11:17;;;;;;;4.00;1.58;;;18.90;51.50;;;;;;5026416;28;20025;-83
2021/06/16 00:13:43;;;;;;;3.05;1.40;;;18.90;51.70;;;;;;5029519;28;20357;-84
2021/06/16 00:16:08;;;;;;;3.85;1.40;;;19.00;51.50;;;;;;5027240;28;20400;-84
2021/06/16 00:18:34;;;;;;;5.38;2.13;;;18.80;51.60;;;;;;5027386;28;20403;-83
2021/06/16 00:20:59;;;;;;;3.20;1.98;;;18.60;52.00;;;;;;5023089;28;20039;-84
2021/06/16 00:23:25;;;;;;;8.98;2.65;;;18.40;52.80;;;;;;5037808;28;20035;-84
2021/06/16 00:25:50;;;;;;;7.07;2.30;;;18.20;55.00;;;;;;5040494;28;20033;-83
2021/06/16 00:28:16;;;;;;;5.65;2.30;;;18.10;54.80;;;;;;5037188;28;20042;-83
2021/06/16 00:30:41;;;;;;;4.95;1.95;;;18.10;54.30;;;;;;5022864;28;20074;-82
2021/06/16 00:33:07;;;;;;;6.72;2.65;;;18.10;54.30;;;;;;5033137;28;20037;-84
2021/06/16 00:35:33;;;;;;;5.70;2.17;;;18.20;53.60;;;;;;5021445;28;20056;-83
2021/06/16 00:37:59;;;;;;;4.95;2.47;;;18.10;53.20;;;;;;5037624;28;20029;-83
2021/06/16 00:40:25;;;;;;;9.07;2.47;;;18.10;53.80;;;;;;5028744;28;20028;-84
2021/06/16 00:42:51;;;;;;;3.47;1.70;;;18.00;56.00;;;;;;5044021;28;20086;-83
2021/06/16 00:45:17;;;;;;;4.00;1.80;;;18.00;53.90;;;;;;5022551;28;20039;-83
2021/06/16 00:47:43;;;;;;;1.75;1.27;;;18.10;53.10;;;;;;5029008;28;20036;-84
2021/06/16 00:50:09;;;;;;;7.13;1.77;;;18.10;52.80;;;;;;5025988;28;20489;-83
2021/06/16 00:52:34;;;;;;;6.57;2.13;;;18.10;52.70;;;;;;5038036;28;20328;-83
2021/06/16 00:55:00;;;;;;;4.95;2.22;;;18.00;52.90;;;;;;5024324;28;20064;-84
2021/06/16 00:57:25;;;;;;;6.80;2.80;;;17.70;55.10;;;;;;5023663;28;20025;-83
2021/06/16 00:59:54;;;;;;;5.50;2.53;;;17.60;56.00;;;;;;5027601;28;20029;-84
2021/06/16 01:02:20;;;;;;;3.65;2.28;;;17.50;57.20;;;;;;5044638;28;20037;-83
2021/06/16 01:04:45;;;;;;;5.63;2.92;;;17.30;57.20;;;;;;5023340;28;20492;-83
2021/06/16 01:07:14;;;;;;;5.70;2.60;;;17.30;56.60;;;;;;5026068;28;20492;-83
2021/06/16 01:09:42;;;;;;;5.35;2.05;;;17.30;57.80;;;;;;5038886;28;20052;-83
2021/06/16 01:12:19;;;;;;;5.13;2.58;;;17.20;58.00;;;;;;5053717;28;20036;-83
2021/06/16 01:15:02;;;;;;;6.63;2.60;;;17.20;57.70;;;;;;5041392;28;20104;-82
2021/06/16 01:17:48;;;;;;;5.82;2.80;;;17.30;56.40;;;;;;5039065;28;20031;-83
2021/06/16 01:20:32;;;;;;;8.25;2.90;;;17.40;55.00;;;;;;5029903;28;20477;-83
2021/06/16 01:23:12;;;;;;;6.20;2.50;;;17.30;55.90;;;;;;5067542;28;20029;-82
2021/06/16 01:25:39;;;;;;;6.05;2.85;;;17.30;55.20;;;;;;5069298;28;20029;-82
2021/06/16 01:28:05;;;;;;;2.42;1.60;;;17.20;55.30;;;;;;5055013;28;20112;-83
2021/06/16 01:30:31;;;;;;;10.00;2.58;;;17.30;54.70;;;;;;5027913;28;20536;-83
2021/06/16 01:32:57;;;;;;;7.88;2.58;;;17.20;54.60;;;;;;5032820;28;20107;-82
2021/06/16 01:35:23;;;;;;;5.45;2.80;;;17.00;56.50;;;;;;5020512;28;20047;-82
2021/06/16 01:37:49;;;;;;;10.93;3.33;;;16.80;57.80;;;;;;5037096;28;20506;-82
2021/06/16 01:40:15;;;;;;;3.92;2.47;;;16.90;57.10;;;;;;5036577;28;20033;-82
2021/06/16 01:42:40;;;;;;;3.88;2.80;;;16.70;59.50;;;;;;5027829;28;20120;-82
2021/06/16 01:45:07;;;;;;;5.13;2.50;;;16.70;58.50;;;;;;5025192;28;20464;-82
2021/06/16 01:47:32;;;;;;;7.07;2.92;;;16.80;58.70;;;;;;5024793;28;20028;-82
2021/06/16 01:49:58;;;;;;;7.35;3.70;;;16.70;60.00;;;;;;5034327;28;20436;-82
2021/06/16 01:52:24;;;;;;;10.25;3.28;;;16.70;63.30;;;;;;5032862;28;20029;-82
2021/06/16 01:54:50;;;;;;;4.75;3.20;;;16.80;58.30;;;;;;5028863;28;20051;-81
2021/06/16 01:57:16;;;;;;;8.40;3.17;;;16.80;57.50;;;;;;5053546;28;20044;-80
2021/06/16 01:59:42;;;;;;;8.40;3.10;;;16.90;58.30;;;;;;5037011;28;20029;-81
2021/06/16 02:02:07;;;;;;;7.88;2.92;;;16.70;57.20;;;;;;5037182;28;20021;-82
2021/06/16 02:04:33;;;;;;;9.68;3.00;;;16.50;58.70;;;;;;5027566;28;20103;-82
2021/06/16 02:07:04;;;;;;;5.30;3.33;;;16.30;60.70;;;;;;5035129;28;20493;-81
2021/06/16 02:09:29;;;;;;;9.10;3.08;;;16.20;60.90;;;;;;5042000;28;20025;-82
2021/06/16 02:11:55;;;;;;;7.28;3.20;;;16.30;59.90;;;;;;5034236;28;20036;-82
2021/06/16 02:14:21;;;;;;;9.40;4.28;;;16.40;58.20;;;;;;5024292;28;20151;-82
2021/06/16 02:16:50;;;;;;;9.35;3.88;;;16.40;58.50;;;;;;5041818;28;20228;-82
2021/06/16 02:19:20;;;;;;;8.23;3.45;;;16.30;59.00;;;;;;5055701;28;20037;-81
2021/06/16 02:21:46;;;;;;;8.85;3.42;;;16.10;62.00;;;;;;5037650;28;20037;-81
2021/06/16 02:24:12;;;;;;;9.10;3.83;;;16.10;60.30;;;;;;5040692;28;20177;-81
2021/06/16 02:26:37;;;;;;;7.63;3.33;;;16.10;62.90;;;;;;5026930;28;20033;-81
2021/06/16 02:29:06;;;;;;;6.47;3.17;;;16.20;59.20;;;;;;5025554;28;20032;-81
2021/06/16 02:31:32;;;;;;;6.30;3.28;;;16.20;59.60;;;;;;5043123;28;20031;-80
2021/06/16 02:33:58;;;;;;;8.57;3.63;;;16.10;62.20;;;;;;5024665;28;20416;-81
2021/06/16 02:36:23;;;;;;;13.13;4.18;;;16.00;60.40;;;;;;5026751;28;20543;-81
2021/06/16 02:38:53;;;;;;;8.85;4.22;;;15.90;60.70;;;;;;5032767;28;20017;-81
2021/06/16 02:41:18;;;;;;;7.13;3.65;;;15.80;61.30;;;;;;5022178;28;20091;-81
2021/06/16 02:43:44;;;;;;;9.30;3.70;;;15.70;63.40;;;;;;5039527;28;20313;-81
2021/06/16 02:46:10;;;;;;;5.72;3.10;;;15.70;61.30;;;;;;5024354;28;20488;-81
2021/06/16 02:48:36;;;;;;;9.43;3.42;;;16.00;58.80;;;;;;5037860;28;20044;-81
2021/06/16 02:51:02;;;;;;;7.45;3.78;;;16.00;58.90;;;;;;5030792;28;20063;-81
2021/06/16 02:53:27;;;;;;;6.00;3.55;;;15.70;62.10;;;;;;5038810;28;20033;-82
2021/06/16 02:55:55;;;;;;;10.25;4.07;;;15.70;61.00;;;;;;5027224;28;20436;-81
2021/06/16 02:58:20;;;;;;;7.20;3.92;;;15.50;63.60;;;;;;5039528;28;20033;-81
2021/06/16 03:00:47;;;;;;;8.65;3.85;;;15.50;64.90;;;;;;5044941;28;20029;-79
2021/06/16 03:03:12;;;;;;;8.35;4.35;;;15.60;62.70;;;;;;5027417;28;20388;-78
2021/06/16 03:05:38;;;;;;;7.63;4.20;;;15.60;63.20;;;;;;5027846;28;20036;-78
2021/06/16 03:08:04;;;;;;;9.82;4.05;;;15.50;65.40;;;;;;5039515;28;20032;-78
2021/06/16 03:10:30;;;;;;;7.07;3.90;;;15.40;66.40;;;;;;5045259;28;20116;-78
2021/06/16 03:12:57;;;;;;;6.63;3.72;;;15.40;67.60;;;;;;5024814;28;20496;-79
2021/06/16 03:15:22;;;;;;;9.20;3.60;;;15.40;67.60;;;;;;5039344;28;20056;-78
2021/06/16 03:17:48;;;;;;;10.07;5.05;;;15.50;66.90;;;;;;5031516;28;20480;-78
2021/06/16 03:20:16;;;;;;;7.45;4.57;;;15.60;71.40;;;;;;5038013;28;20351;-79
2021/06/16 03:22:41;;;;;;;6.82;3.97;;;15.60;64.70;;;;;;5038134;28;20431;-79
2021/06/16 03:25:08;;;;;;;8.77;3.67;;;15.60;63.00;;;;;;5042162;28;20115;-79
2021/06/16 03:27:34;;;;;;;8.10;4.38;;;15.60;64.20;;;;;;5031384;28;20024;-79
2021/06/16 03:29:59;;;;;;;7.97;3.80;;;15.60;63.30;;;;;;5040278;28;20498;-78
2021/06/16 03:32:25;;;;;;;8.73;3.15;;;15.50;65.70;;;;;;5038242;28;20028;-78
2021/06/16 03:34:50;;;;;;;4.03;2.33;;;15.60;62.50;;;;;;5036889;28;20165;-79
2021/06/16 03:37:16;;;;;;;7.78;3.63;;;15.80;61.20;;;;;;5043052;28;20029;-79
2021/06/16 03:39:41;;;;;;;8.82;3.95;;;15.70;61.70;;;;;;5042854;28;20051;-80
2021/06/16 03:42:07;;;;;;;8.88;3.58;;;15.50;64.80;;;;;;5045498;28;20078;-78
2021/06/16 03:44:33;;;;;;;12.23;4.38;;;15.30;68.50;;;;;;5023549;28;20029;-79
2021/06/16 03:46:59;;;;;;;7.75;3.92;;;15.30;70.00;;;;;;5021475;28;20027;-79
2021/06/16 03:49:24;;;;;;;3.17;2.58;;;15.30;72.10;;;;;;5022482;28;20020;-78
2021/06/16 03:51:50;;;;;;;4.28;2.20;;;15.50;66.70;;;;;;5030453;28;20039;-79
2021/06/16 03:54:15;;;;;;;9.13;3.85;;;15.70;64.90;;;;;;5026951;28;20025;-79
2021/06/16 03:56:45;;;;;;;9.68;3.85;;;15.80;63.30;;;;;;5025263;28;23038;-79
2021/06/16 03:59:11;;;;;;;7.18;3.88;;;15.70;66.80;;;;;;5029078;28;20025;-79
2021/06/16 04:01:37;;;;;;;10.45;4.72;;;15.50;70.30;;;;;;5020045;28;20078;-79
2021/06/16 04:04:04;;;;;;;6.25;3.97;;;15.60;67.60;;;;;;5031078;28;20036;-79
2021/06/16 04:06:30;;;;;;;8.63;4.53;;;15.70;69.10;;;;;;5038244;28;20025;-78
2021/06/16 04:08:55;;;;;;;10.15;4.63;;;15.70;70.30;;;;;;5026827;28;20043;-78
2021/06/16 04:11:21;;;;;;;11.30;4.47;;;15.80;72.40;;;;;;5029565;28;20104;-79
2021/06/16 04:13:46;;;;;;;8.73;4.07;;;15.90;71.60;;;;;;5022878;28;20060;-79
2021/06/16 04:16:12;;;;;;;10.93;4.68;;;16.10;71.00;;;;;;5031303;28;20082;-80
2021/06/16 04:18:40;;;;;;;8.27;3.40;;;16.10;71.50;;;;;;5027657;28;20060;-80
2021/06/16 04:21:06;;;;;;;11.25;4.53;;;16.20;70.50;;;;;;5048948;28;20249;-80
2021/06/16 04:23:32;;;;;;;8.27;4.00;;;16.30;70.70;;;;;;5037823;28;20507;-77
2021/06/16 04:25:57;;;;;;;7.75;4.15;;;16.30;69.40;;;;;;5033893;28;20060;-79
2021/06/16 04:28:23;;;;;;;10.80;5.55;;;16.40;70.80;;;;;;5026398;28;20029;-80
2021/06/16 04:30:48;;;;;;;8.40;4.32;;;16.50;70.80;;;;;;5069710;28;20378;-79
2021/06/16 04:33:14;;;;;;;9.50;4.28;;;16.60;69.40;;;;;;5027050;28;20569;-79
2021/06/16 04:35:39;;;;;;;6.80;3.90;;;16.60;68.40;;;;;;5027312;28;20396;-79
2021/06/16 04:38:05;;;;;;;9.85;4.57;;;16.70;67.80;;;;;;5027889;28;20468;-79
2021/06/16 04:40:31;;;;;;;7.78;3.97;;;16.80;67.10;;;;;;5021883;28;20021;-79
2021/06/16 04:42:56;;;;;;;8.63;3.60;;;16.90;66.30;;;;;;5047301;28;20116;-80
2021/06/16 04:45:22;;;;;;;11.07;4.30;;;16.90;66.40;;;;;;5027371;28;20040;-79
2021/06/16 04:47:47;;;;;;;7.10;4.47;;;17.00;66.50;;;;;;5016211;28;20036;-79
2021/06/16 04:50:13;;;;;;;13.93;4.45;;;17.20;66.30;;;;;;5037021;28;20028;-80
2021/06/16 04:52:39;;;;;;;9.45;4.45;;;17.30;65.70;;;;;;5038685;28;20025;-79
2021/06/16 04:55:06;;;;;;;8.13;4.53;;;17.40;65.30;;;;;;5028384;28;20021;-79
2021/06/16 04:57:32;;;;;;;6.72;5.05;;;17.50;64.70;;;;;;5041318;28;20051;-80
2021/06/16 04:59:57;;;;;;;10.70;4.88;;;17.70;66.40;;;;;;5040137;28;20476;-79
2021/06/16 05:02:23;;;;;;;9.90;5.20;;;17.80;67.20;;;;;;5022177;28;20052;-80
2021/06/16 05:04:49;;;;;;;6.68;5.05;;;18.00;68.20;;;;;;5019028;28;20436;-79
2021/06/16 05:07:15;;;;;;;7.05;4.13;;;18.10;68.80;;;;;;5027321;28;20089;-81
2021/06/16 05:09:40;;;;;;;6.75;4.78;;;18.30;68.50;;;;;;5023692;28;20481;-80
2021/06/16 05:12:06;;;;;;;6.40;5.00;;;18.50;68.20;;;;;;5057870;28;20025;-80
2021/06/16 05:14:32;;;;;;;10.45;4.93;;;18.70;68.70;;;;;;5038578;28;20081;-79
2021/06/16 05:16:57;;;;;;;11.40;4.88;;;18.90;68.70;;;;;;5038857;28;20041;-79
2021/06/16 05:19:24;;;;;;;8.70;4.15;;;19.10;68.50;;;;;;5020934;28;20086;-80
2021/06/16 05:21:49;;;;;;;11.55;5.07;;;19.40;68.30;;;;;;5022443;28;20040;-80
2021/06/16 05:24:15;;;;;;;9.02;4.50;;;19.60;69.20;;;;;;5025517;28;20078;-80
2021/06/16 05:26:41;;;;;;;7.15;4.80;;;19.80;68.60;;;;;;5029596;28;20032;-80
2021/06/16 05:29:07;;;;;;;6.90;5.03;;;20.00;69.20;;;;;;5037970;28;20109;-79
2021/06/16 05:31:32;;;;;;;8.88;4.90;;;20.20;66.80;;;;;;5025710;28;20029;-80
2021/06/16 05:33:58;;;;;;;8.80;4.47;;;20.40;67.10;;;;;;5035369;28;20102;-79
2021/06/16 05:36:24;;;;;;;8.75;5.07;;;20.60;66.80;;;;;;5034682;28;20047;-79
2021/06/16 05:38:50;;;;;;;7.13;5.15;;;20.90;67.20;;;;;;5025117;28;20085;-80
2021/06/16 05:41:16;;;;;;;12.48;5.05;;;21.10;66.10;;;;;;5022478;28;20431;-80
2021/06/16 05:43:41;;;;;;;15.60;5.63;;;21.30;65.60;;;;;;5022846;28;20033;-80
2021/06/16 05:46:07;;;;;;;11.93;5.32;;;21.60;65.60;;;;;;5038287;28;20086;-80
2021/06/16 05:48:32;;;;;;;12.63;5.32;;;21.80;66.00;;;;;;5034108;28;20075;-81
2021/06/16 05:50:58;;;;;;;9.65;4.65;;;22.10;66.80;;;;;;5023655;28;20047;-80
2021/06/16 05:53:23;;;;;;;8.65;5.38;;;22.30;65.10;;;;;;5026789;28;20052;-80
2021/06/16 05:55:55;;;;;;;12.50;5.85;;;22.50;65.50;;;;;;5040088;28;20037;-80
2021/06/16 05:58:20;;;;;;;12.68;4.53;;;22.80;64.80;;;;;;5028723;28;20037;-79
2021/06/16 06:00:46;;;;;;;9.35;4.60;;;23.00;64.30;;;;;;5034976;28;20426;-80
2021/06/16 06:03:12;;;;;;;11.77;6.18;;;23.20;64.20;;;;;;5025264;28;20043;-80
2021/06/16 06:05:37;;;;;;;12.43;6.18;;;23.40;63.70;;;;;;5038272;28;20101;-83
2021/06/16 06:08:03;;;;;;;15.90;5.05;;;23.50;62.90;;;;;;5026779;28;20028;-82
2021/06/16 06:10:28;;;;;;;10.75;5.28;;;23.70;62.40;;;;;;5047651;28;20025;-82
2021/06/16 06:12:56;;;;;;;7.57;5.03;;;23.90;62.20;;;;;;5034841;28;21227;-82
2021/06/16 06:15:21;;;;;;;11.05;5.43;;;24.10;62.20;;;;;;5036676;28;20496;-83
2021/06/16 06:17:47;;;;;;;10.43;5.45;;;24.30;61.20;;;;;;5021189;28;20091;-81
2021/06/16 06:20:13;;;;;;;10.32;4.90;;;24.50;60.90;;;;;;5025019;28;20044;-83
2021/06/16 06:22:39;;;;;;;9.93;5.20;;;24.70;60.20;;;;;;5041444;28;20056;-83
2021/06/16 06:25:04;;;;;;;13.05;5.63;;;24.80;59.70;;;;;;5030118;28;20115;-83
2021/06/16 06:27:30;;;;;;;12.73;4.72;;;24.90;59.10;;;;;;5030700;28;20554;-83
2021/06/16 06:29:57;;;;;;;9.40;4.72;;;25.10;58.40;;;;;;5033291;28;20604;-83
2021/06/16 06:32:22;;;;;;;15.00;5.95;;;25.20;58.30;;;;;;5027912;28;20076;-83
2021/06/16 06:34:48;;;;;;;8.90;4.60;;;25.40;58.00;;;;;;5035876;28;20485;-83
2021/06/16 06:37:13;;;;;;;10.02;4.13;;;25.50;57.60;;;;;;5038910;28;20111;-83
2021/06/16 06:39:41;;;;;;;5.70;3.80;;;25.60;57.30;;;;;;5033951;28;20040;-83
2021/06/16 06:42:07;;;;;;;5.57;4.32;;;25.70;57.30;;;;;;5047992;28;20094;-83
2021/06/16 06:44:32;;;;;;;12.35;4.97;;;25.90;57.10;;;;;;5036661;28;20496;-83
2021/06/16 06:46:58;;;;;;;8.98;5.13;;;26.10;56.90;;;;;;5022420;28;20110;-83
2021/06/16 06:49:23;;;;;;;7.68;3.90;;;26.30;56.60;;;;;;5040516;28;20037;-83
2021/06/16 06:51:49;;;;;;;8.35;4.65;;;26.40;56.10;;;;;;5039818;28;20033;-83
2021/06/16 06:54:16;;;;;;;8.60;4.57;;;26.40;56.30;;;;;;5029898;28;20093;-83
2021/06/16 06:56:41;;;;;;;8.93;4.88;;;26.70;56.40;;;;;;5030345;28;20193;-84
2021/06/16 06:59:07;;;;;;;14.93;5.05;;;27.00;56.00;;;;;;5035321;28;20599;-83
2021/06/16 07:01:33;;;;;;;8.02;4.43;;;27.40;55.40;;;;;;5039824;28;20515;-82
2021/06/16 07:04:01;;;;;;;10.18;4.80;;;27.50;55.10;;;;;;5057044;28;20538;-83
2021/06/16 07:06:30;;;;;;;11.60;5.47;;;27.80;54.50;;;;;;5030683;28;20029;-82
2021/06/16 07:08:56;;;;;;;11.13;4.82;;;27.90;54.20;;;;;;5045349;28;20471;-83
2021/06/16 07:11:21;;;;;;;6.43;3.97;;;28.00;54.20;;;;;;5039137;28;20689;-83
2021/06/16 07:13:47;;;;;;;8.73;4.68;;;28.30;53.80;;;;;;5029009;28;20351;-82
2021/06/16 07:16:13;;;;;;;10.98;4.38;;;28.40;53.70;;;;;;5051216;28;20037;-83
2021/06/16 07:18:38;;;;;;;6.18;4.10;;;28.60;53.20;;;;;;5047492;28;20047;-85
2021/06/16 07:21:04;;;;;;;6.70;4.35;;;28.60;53.10;;;;;;5060752;28;20036;-85
2021/06/16 07:23:30;;;;;;;9.32;4.90;;;28.80;52.70;;;;;;5040040;28;20041;-85
2021/06/16 07:25:55;;;;;;;7.18;3.78;;;29.00;51.40;;;;;;5066535;28;20566;-85
2021/06/16 07:28:21;;;;;;;8.75;5.30;;;29.10;51.70;;;;;;5051316;28;20044;-85
2021/06/16 07:30:46;;;;;;;9.73;4.68;;;29.10;51.70;;;;;;5046060;28;20021;-85
2021/06/16 07:33:12;;;;;;;10.88;4.55;;;29.30;50.50;;;;;;5045994;28;20041;-84
2021/06/16 07:35:38;;;;;;;8.45;3.50;;;29.30;50.80;;;;;;5043658;28;20139;-84
2021/06/16 07:38:03;;;;;;;8.55;4.95;;;29.40;51.10;;;;;;5028439;28;20036;-83
2021/06/16 07:40:29;;;;;;;6.07;3.83;;;29.50;50.90;;;;;;5031161;28;20029;-84
2021/06/16 07:42:55;;;;;;;10.13;4.35;;;29.50;50.70;;;;;;5022962;28;20068;-83
2021/06/16 07:45:20;;;;;;;10.65;4.13;;;29.60;50.70;;;;;;5027740;28;20136;-83
2021/06/16 07:47:46;;;;;;;9.85;4.18;;;29.70;50.50;;;;;;5024519;28;20028;-83
2021/06/16 07:50:17;;;;;;;9.13;4.47;;;29.70;50.20;;;;;;5037807;28;20033;-82
2021/06/16 07:52:43;;;;;;;7.88;3.80;;;29.90;49.80;;;;;;5037308;28;20433;-82
2021/06/16 07:55:09;;;;;;;7.43;4.35;;;29.80;49.60;;;;;;5037692;28;20186;-82
2021/06/16 07:57:35;;;;;;;7.65;3.95;;;30.10;49.60;;;;;;5038487;28;20608;-82
2021/06/16 08:00:00;;;;;;;5.45;3.20;;;30.10;49.70;;;;;;5024859;28;20028;-81
2021/06/16 08:02:27;;;;;;;5.43;2.80;;;30.30;49.70;;;;;;5019881;28;20063;-82
2021/06/16 08:04:53;;;;;;;5.88;3.42;;;30.30;48.90;;;;;;5026381;28;20041;-81
2021/06/16 08:07:20;;;;;;;5.50;3.42;;;30.30;49.80;;;;;;5024130;28;20082;-81
2021/06/16 08:09:45;;;;;;;14.68;3.95;;;30.80;49.20;;;;;;5022400;28;20025;-81
2021/06/16 08:12:11;;;;;;;8.27;4.15;;;31.00;48.30;;;;;;5027835;28;20032;-80
2021/06/16 08:14:37;;;;;;;12.07;4.05;;;31.10;48.20;;;;;;5020939;28;20021;-81
2021/06/16 08:17:03;;;;;;;8.10;3.88;;;31.40;47.10;;;;;;5036774;28;20029;-81
2021/06/16 08:19:29;;;;;;;6.97;3.53;;;31.50;46.90;;;;;;5021923;28;20416;-80
2021/06/16 08:21:54;;;;;;;6.35;2.97;;;31.70;47.00;;;;;;5035369;28;20037;-80
2021/06/16 08:24:20;;;;;;;9.88;3.85;;;31.80;46.40;;;;;;5040319;28;20021;-80
2021/06/16 08:26:45;;;;;;;7.43;3.35;;;31.80;47.40;;;;;;5020229;28;20044;-80
2021/06/16 08:29:11;;;;;;;6.55;3.85;;;32.10;47.10;;;;;;5036220;28;20033;-80
2021/06/16 08:31:37;;;;;;;8.80;3.30;;;32.40;46.70;;;;;;5018359;28;20040;-80
2021/06/16 08:34:02;;;;;;;8.35;4.43;;;32.70;45.00;;;;;;5021293;28;20048;-80
2021/06/16 08:36:28;;;;;;;9.65;3.30;;;32.90;44.80;;;;;;5023075;28;20493;-80
2021/06/16 08:38:53;;;;;;;5.60;3.30;;;33.00;45.10;;;;;;5040581;28;20584;-80
2021/06/16 08:41:20;;;;;;;7.20;3.70;;;33.10;45.50;;;;;;5055176;28;20032;-80
2021/06/16 08:43:47;;;;;;;10.75;3.70;;;33.20;45.40;;;;;;5053261;28;20128;-80
2021/06/16 08:46:13;;;;;;;7.85;3.33;;;33.70;44.20;;;;;;5036013;28;20487;-80
2021/06/16 08:48:40;;;;;;;6.80;3.10;;;33.70;44.30;;;;;;5035039;28;20032;-80
2021/06/16 08:51:06;;;;;;;8.05;3.78;;;33.70;44.50;;;;;;5024135;28;20365;-80
2021/06/16 08:53:32;;;;;;;5.43;3.40;;;34.00;44.20;;;;;;5023711;28;20036;-79
2021/06/16 08:55:57;;;;;;;5.35;3.45;;;34.20;43.00;;;;;;5029071;28;20385;-80
2021/06/16 08:58:23;;;;;;;5.65;3.10;;;34.40;43.00;;;;;;5022851;28;20029;-79
2021/06/16 09:00:49;;;;;;;5.50;3.67;;;34.50;42.90;;;;;;5022427;28;20029;-80
2021/06/16 09:03:14;;;;;;;4.65;2.85;;;34.70;43.60;;;;;;5037299;28;20033;-79
2021/06/16 09:05:40;;;;;;;6.30;4.40;;;34.70;42.70;;;;;;5053472;28;20461;-79
2021/06/16 09:08:17;;;;;;;4.95;3.08;;;34.90;41.80;;;;;;5023456;28;20036;-79
2021/06/16 09:10:52;;;;;;;8.20;3.13;;;35.10;41.70;;;;;;5054041;28;20033;-79
2021/06/16 09:13:25;;;;;;;;;;;34.70;42.70;;;;;;5038923;28;20028;-79
2021/06/16 09:15:51;;;;;;;5.93;3.20;;;35.20;42.50;;;;;;5037853;28;19913;-79
2021/06/16 09:18:16;;;;;;;5.40;3.33;;;35.40;42.00;;;;;;5036641;28;20078;-78
2021/06/16 09:20:47;;;;;;;5.53;4.32;;;35.60;41.60;;;;;;5033026;28;20037;-78
2021/06/16 09:23:12;;;;;;;3.30;3.00;;;35.90;40.60;;;;;;5043553;28;20043;-78
2021/06/16 09:25:42;;;;;;;6.47;4.18;;;36.00;40.10;;;;;;5069276;28;20391;-79
2021/06/16 09:28:07;;;;;;;6.75;3.90;;;36.20;39.90;;;;;;5053144;28;20040;-78
2021/06/16 09:30:42;;;;;;;7.32;4.38;;;36.30;40.40;;;;;;5039994;28;20033;-78
2021/06/16 09:33:15;;;;;;;6.47;3.80;;;36.40;40.10;;;;;;5046918;28;20101;-78
2021/06/16 09:35:43;;;;;;;8.80;4.47;;;36.60;39.10;;;;;;5034891;28;20036;-77
2021/06/16 09:38:24;;;;;;;11.48;5.00;;;36.60;39.90;;;;;;5052323;28;20111;-77
2021/06/16 09:40:49;;;;;;;6.28;3.70;;;36.70;39.80;;;;;;5021553;28;20036;-77
2021/06/16 09:43:17;;;;;;;7.63;4.32;;;36.70;39.80;;;;;;5035431;28;20447;-77
2021/06/16 09:45:44;;;;;;;16.23;4.82;;;36.80;39.80;;;;;;5043956;28;20040;-77
2021/06/16 09:48:31;;;;;;;8.18;3.50;;;36.90;39.70;;;;;;5037087;28;20025;-77
2021/06/16 09:51:15;;;;;;;6.57;5.03;;;37.00;39.70;;;;;;5053134;28;20044;-77
2021/06/16 09:53:57;;;;;;;5.28;4.38;;;37.00;39.60;;;;;;5058334;28;20032;-77
2021/06/16 09:56:23;;;;;;;7.55;4.47;;;37.10;39.70;;;;;;5038440;28;20044;-77
2021/06/16 09:58:49;;;;;;;9.23;4.38;;;37.30;39.30;;;;;;5048152;28;20033;-77
2021/06/16 10:01:14;;;;;;;4.18;3.40;;;37.60;38.70;;;;;;5018658;28;20433;-77
2021/06/16 10:03:41;;;;;;;6.68;4.32;;;37.70;38.90;;;;;;5039191;28;20498;-77
2021/06/16 10:06:09;;;;;;;5.15;4.22;;;38.00;38.60;;;;;;5036159;28;20031;-78
2021/06/16 10:08:36;;;;;;;5.20;4.00;;;38.00;38.50;;;;;;5052282;28;20041;-77
2021/06/16 10:11:03;;;;;;;7.28;5.18;;;38.00;38.30;;;;;;5051758;28;20510;-77
2021/06/16 10:13:30;;;;;;;6.47;4.80;;;38.10;38.20;;;;;;5035818;28;20025;-78
2021/06/16 10:15:56;;;;;;;7.35;5.38;;;38.30;38.10;;;;;;5052888;28;20045;-78
2021/06/16 10:18:22;;;;;;;5.93;4.97;;;38.70;37.60;;;;;;5048928;28;20119;-78
2021/06/16 10:20:51;;;;;;;6.75;5.03;;;38.80;36.70;;;;;;5034142;28;20548;-78
2021/06/16 10:23:17;;;;;;;6.78;3.88;;;38.80;37.20;;;;;;5034146;28;20029;-78
2021/06/16 10:25:42;;;;;;;7.85;5.45;;;38.70;38.20;;;;;;5020706;28;20048;-78
2021/06/16 10:28:08;;;;;;;9.35;5.70;;;39.10;36.30;;;;;;5044615;28;20039;-78
2021/06/16 10:30:39;;;;;;;9.18;5.18;;;39.20;36.10;;;;;;5055788;28;20032;-78
2021/06/16 10:33:10;;;;;;;9.43;5.60;;;39.30;35.70;;;;;;5034125;28;20036;-78
2021/06/16 10:35:36;;;;;;;5.35;3.78;;;39.30;35.70;;;;;;5026110;28;20080;-78
2021/06/16 10:38:20;;;;;;;6.60;4.18;;;39.40;36.00;;;;;;5054975;28;20032;-78
2021/06/16 10:40:51;;;;;;;6.13;4.95;;;39.30;36.40;;;;;;5036850;28;20481;-78
2021/06/16 10:43:29;;;;;;;4.30;3.80;;;39.50;36.50;;;;;;5058316;28;20037;-78
2021/06/16 10:45:58;;;;;;;5.40;4.63;;;39.60;36.70;;;;;;5043930;28;20503;-78
2021/06/16 10:48:51;;;;;;;5.28;4.25;;;39.80;36.50;;;;;;5037361;28;20025;-78
2021/06/16 10:51:24;;;;;;;9.73;4.00;;;39.90;36.50;;;;;;5045887;28;20032;-78
2021/06/16 10:54:25;;;;;;;7.82;4.90;;;39.70;37.10;;;;;;5028040;28;20463;-78
2021/06/16 10:57:04;;;;;;;5.28;4.65;;;40.20;35.30;;;;;;5051220;28;20029;-78
2021/06/16 10:59:42;;;;;;;4.40;4.00;;;40.30;35.60;;;;;;5055579;28;20119;-78
2021/06/16 11:02:08;;;;;;;8.13;4.55;;;40.40;35.80;;;;;;5052297;28;20024;-78
2021/06/16 11:04:34;;;;;;;6.88;4.75;;;40.50;35.20;;;;;;5043429;28;20579;-78
2021/06/16 11:07:00;;;;;;;7.55;4.72;;;40.90;34.20;;;;;;5049493;28;20048;-78
2021/06/16 11:09:50;;;;;;;5.72;4.63;;;40.90;33.90;;;;;;5019748;28;20021;-78
2021/06/16 11:12:16;;;;;;;20.30;4.97;;;41.00;34.40;;;;;;5044296;28;20104;-78
2021/06/16 11:14:47;;;;;;;7.22;4.55;;;41.10;34.40;;;;;;5051211;28;20124;-78
2021/06/16 11:17:33;;;;;;;9.07;4.85;;;41.30;34.00;;;;;;5044347;28;20095;-77
2021/06/16 11:20:18;;;;;;;6.32;4.22;;;41.30;34.00;;;;;;5053265;28;20385;-77
2021/06/16 11:22:59;;;;;;;8.13;4.80;;;41.30;34.80;;;;;;5068970;28;20081;-77
2021/06/16 11:25:35;;;;;;;5.25;4.75;;;41.50;33.90;;;;;;5042917;28;20271;-77
2021/06/16 11:28:38;;;;;;;5.68;4.10;;;41.50;33.30;;;;;;5028974;28;20488;-78
2021/06/16 11:31:06;;;;;;;5.43;3.78;;;41.60;34.30;;;;;;5039672;28;20032;-77
2021/06/16 11:33:36;;;;;;;6.80;4.57;;;41.60;34.60;;;;;;5023713;28;20029;-78
2021/06/16 11:36:09;;;;;;;10.23;5.15;;;41.80;33.50;;;;;;5052928;28;20098;-78
2021/06/16 11:38:43;;;;;;;6.47;4.43;;;41.90;32.50;;;;;;5028596;28;20492;-78
2021/06/16 11:41:11;;;;;;;5.10;4.35;;;41.70;32.80;;;;;;5043120;28;20504;-78
2021/06/16 11:43:45;;;;;;;5.55;4.30;;;41.60;33.60;;;;;;5053267;28;20041;-78
2021/06/16 11:46:30;;;;;;;4.18;3.78;;;41.70;33.60;;;;;;5038451;28;20033;-78
2021/06/16 11:49:12;;;;;;;6.40;4.47;;;41.80;33.80;;;;;;5063536;28;20025;-78
2021/06/16 11:51:38;;;;;;;4.40;3.55;;;41.80;33.60;;;;;;5055083;28;20136;-78
2021/06/16 11:54:27;;;;;;;3.85;3.38;;;41.80;32.40;;;;;;5042922;28;20594;-78
2021/06/16 11:57:00;;;;;;;8.10;3.95;;;42.40;31.90;;;;;;5056460;28;20489;-78
2021/06/16 11:59:31;;;;;;;3.72;3.35;;;42.20;32.40;;;;;;5053250;28;20058;-78
2021/06/16 12:02:13;;;;;;;4.05;3.75;;;42.20;32.10;;;;;;5035800;28;20048;-78
2021/06/16 12:04:49;;;;;;;6.18;3.15;;;42.10;31.20;;;;;;5040251;28;20029;-78
2021/06/16 12:07:28;;;;;;;9.65;3.95;;;42.30;31.30;;;;;;5053640;28;20061;-78
2021/06/16 12:09:56;;;;;;;3.60;3.25;;;42.20;32.10;;;;;;5040399;28;20393;-78
2021/06/16 12:12:22;;;;;;;7.65;3.33;;;41.90;31.80;;;;;;5057511;28;20126;-78
2021/06/16 12:14:49;;;;;;;5.32;4.13;;;41.90;31.80;;;;;;5035234;28;20063;-78
2021/06/16 12:17:15;;;;;;;6.15;3.35;;;41.90;32.10;;;;;;5053949;28;20037;-78
2021/06/16 12:19:40;;;;;;;5.28;3.80;;;41.80;32.20;;;;;;5036821;28;20085;-78
2021/06/16 12:22:09;;;;;;;5.53;4.22;;;41.90;31.70;;;;;;5037246;28;20047;-78
2021/06/16 12:24:38;;;;;;;5.10;3.83;;;42.00;31.00;;;;;;5027097;28;20021;-78
2021/06/16 12:27:09;;;;;;;4.82;3.70;;;42.20;30.70;;;;;;5042925;28;20028;-78
2021/06/16 12:29:37;;;;;;;3.97;3.58;;;42.20;32.00;;;;;;5055043;28;20093;-78
2021/06/16 12:32:06;;;;;;;4.38;3.60;;;42.60;30.70;;;;;;5021672;28;20507;-78
2021/06/16 12:34:34;;;;;;;5.10;3.35;;;42.70;30.40;;;;;;5053420;28;20037;-78
2021/06/16 12:37:14;;;;;;;3.42;2.78;;;42.80;31.30;;;;;;5041933;28;20036;-78
2021/06/16 12:39:56;;;;;;;4.40;3.00;;;42.80;30.10;;;;;;5027503;28;20025;-78
2021/06/16 12:42:21;;;;;;;6.38;3.17;;;43.20;29.90;;;;;;5053163;28;20025;-78
2021/06/16 12:44:47;;;;;;;5.13;2.70;;;43.20;30.60;;;;;;5042678;28;20583;-78
2021/06/16 12:47:31;;;;;;;4.30;2.63;;;43.20;29.40;;;;;;5035314;28;20040;-78
2021/06/16 12:49:57;;;;;;;3.75;2.67;;;43.40;29.10;;;;;;5056508;28;20504;-78